Blooming Grove, Texas
Current Conditions -  °F | °C
As of 7:53 PM on Wednesday 26 Nov 2014 (Local Time) from KCRS Reporting Station
Clear Clear  
Wind Chill: 53°   Ceiling: Unl
Heat Index: 53°   Visibility: 10mi
Dew Point: 35°   Wind: 7mph
Humidity: 50%   Direction: 330°NNW
Pressure: 30.3"   Gusts: NA
Location:  32.09°N, 96.72°W
Report Text: KCRS 270153Z AUTO 33006KT 10SM CLR 12/02 A3030 RMK AO2 SLP259 T01170017
Loading
Personal Weather Stations






























Interactive Weather Map New forecast layout! Learn more

10-Day Weather Forecast

Advertisements
Track Severe Weather on mobile